Time;durP1;ratioP1;P1;durP2;ratioP2;P2;SDS_P1;SDS_P2;PMS_P1;PMS_P2;Temp;Humidity;BMP_temperature;BMP_pressure;BME280_temperature;BME280_humidity;BME280_pressure;Samples;Min_cycle;Max_cycle;Signal;HPM_P1;HPM_P2
2021/05/12 00:02:20;;;;;;;28.08;23.10;;;13.10;90.50;;;;;;5055070;28;20479;-81
2021/05/12 00:04:46;;;;;;;33.47;23.30;;;12.90;90.60;;;;;;5055036;28;20035;-80
2021/05/12 00:07:11;;;;;;;31.85;23.65;;;12.90;90.60;;;;;;5038194;28;20384;-81
2021/05/12 00:09:37;;;;;;;29.45;23.27;;;12.90;90.90;;;;;;5055866;28;20025;-81
2021/05/12 00:12:04;;;;;;;31.13;23.77;;;12.80;90.90;;;;;;5055170;28;20079;-81
2021/05/12 00:14:33;;;;;;;29.25;23.63;;;12.80;90.90;;;;;;5054836;28;20041;-82
2021/05/12 00:17:02;;;;;;;31.13;25.60;;;12.80;91.10;;;;;;5038538;28;20096;-81
2021/05/12 00:19:29;;;;;;;30.88;24.75;;;12.80;91.20;;;;;;5038710;28;20029;-81
2021/05/12 00:24:39;;;;;;;29.90;24.83;;;12.70;91.30;;;;;;5054856;28;20029;-82
2021/05/12 00:27:06;;;;;;;33.70;26.00;;;12.60;91.30;;;;;;5054524;28;20032;-74
2021/05/12 00:29:32;;;;;;;30.20;23.40;;;12.60;91.40;;;;;;5054432;28;20032;-75
2021/05/12 00:31:57;;;;;;;29.85;23.67;;;12.60;91.40;;;;;;5054318;28;20025;-75
2021/05/12 00:34:23;;;;;;;30.30;23.63;;;12.50;91.40;;;;;;5055426;28;20029;-77
2021/05/12 00:36:49;;;;;;;28.85;22.08;;;12.50;91.30;;;;;;5054412;28;20039;-75
2021/05/12 00:39:14;;;;;;;30.85;24.15;;;12.50;91.30;;;;;;5054346;28;20036;-75
2021/05/12 00:41:41;;;;;;;31.53;22.33;;;12.40;91.40;;;;;;5055216;28;20047;-75
2021/05/12 00:44:16;;;;;;;31.27;23.98;;;12.40;91.30;;;;;;5054022;28;20135;-75
2021/05/12 00:46:46;;;;;;;37.45;24.83;;;12.40;91.40;;;;;;5055256;28;20431;-76
2021/05/12 00:49:12;;;;;;;30.48;22.98;;;12.40;91.50;;;;;;5054146;28;20029;-75
2021/05/12 00:51:38;;;;;;;32.83;23.43;;;12.30;91.70;;;;;;5053872;28;20040;-75
2021/05/12 00:54:05;;;;;;;31.80;23.57;;;12.30;91.50;;;;;;5053991;28;20087;-75
2021/05/12 00:56:33;;;;;;;30.73;22.65;;;12.20;91.50;;;;;;5053843;28;20035;-76
2021/05/12 00:58:59;;;;;;;30.10;23.52;;;12.30;91.50;;;;;;5037233;28;20032;-75
2021/05/12 01:01:25;;;;;;;30.00;21.53;;;12.20;91.50;;;;;;5053821;28;20067;-74
2021/05/12 01:03:50;;;;;;;27.23;20.87;;;12.20;91.50;;;;;;5053735;28;20029;-76
2021/05/12 01:06:28;;;;;;;25.93;19.57;;;12.10;91.40;;;;;;5054038;28;20388;-76
2021/05/12 01:08:54;;;;;;;23.90;18.53;;;12.10;91.30;;;;;;5053450;28;20108;-76
2021/05/12 01:11:20;;;;;;;25.83;17.60;;;12.10;91.30;;;;;;5053720;28;20452;-77
2021/05/12 01:13:47;;;;;;;28.80;18.37;;;12.00;91.20;;;;;;5053585;28;20473;-75
2021/05/12 01:16:13;;;;;;;25.77;17.33;;;12.00;91.20;;;;;;5055173;28;20024;-75
2021/05/12 01:18:38;;;;;;;25.87;16.47;;;11.90;91.10;;;;;;5054766;28;20029;-75
2021/05/12 01:21:07;;;;;;;24.57;17.40;;;11.90;91.10;;;;;;5054754;28;20032;-75
2021/05/12 01:23:35;;;;;;;25.53;17.43;;;11.90;91.10;;;;;;5054688;28;20021;-75
2021/05/12 01:26:10;;;;;;;26.20;16.50;;;11.80;91.10;;;;;;5053435;28;20028;-76
2021/05/12 01:28:39;;;;;;;25.20;16.07;;;11.90;91.10;;;;;;5053284;28;20021;-75
2021/05/12 01:31:07;;;;;;;23.87;16.60;;;11.90;91.10;;;;;;5053182;28;20021;-75
2021/05/12 01:33:33;;;;;;;26.03;16.20;;;11.80;91.00;;;;;;5054323;28;20029;-75
2021/05/12 01:36:00;;;;;;;30.30;17.83;;;11.80;91.10;;;;;;5053114;28;20125;-75
2021/05/12 01:38:27;;;;;;;26.73;18.27;;;11.80;91.10;;;;;;5054417;28;20028;-75
2021/05/12 01:40:53;;;;;;;24.93;17.53;;;11.70;91.00;;;;;;5053022;28;20025;-75
2021/05/12 01:43:19;;;;;;;27.13;18.95;;;11.80;91.10;;;;;;5053028;28;20102;-75
2021/05/12 01:45:46;;;;;;;29.20;18.73;;;11.60;91.00;;;;;;5036650;28;20025;-75
2021/05/12 01:48:12;;;;;;;28.37;18.67;;;11.60;91.10;;;;;;5036455;28;20362;-75
2021/05/12 01:50:39;;;;;;;24.30;18.73;;;11.60;91.10;;;;;;5036421;28;20488;-75
2021/05/12 01:53:05;;;;;;;28.77;18.43;;;11.60;91.10;;;;;;5052996;28;20440;-76
2021/05/12 01:55:31;;;;;;;27.13;18.27;;;11.60;91.10;;;;;;5052759;28;20036;-75
2021/05/12 01:57:57;;;;;;;32.27;20.63;;;11.50;91.10;;;;;;5064865;28;20032;-75
2021/05/12 02:00:26;;;;;;;29.40;19.57;;;11.50;91.10;;;;;;5071368;28;20091;-75
2021/05/12 02:02:53;;;;;;;31.27;19.70;;;11.50;91.10;;;;;;5072847;28;20012;-75
2021/05/12 02:05:19;;;;;;;31.07;18.47;;;11.50;91.20;;;;;;5072706;28;20380;-75
2021/05/12 02:07:48;;;;;;;27.23;19.03;;;11.50;91.20;;;;;;5055862;28;20039;-75
2021/05/12 02:10:14;;;;;;;25.97;17.73;;;11.40;91.10;;;;;;5073663;28;20017;-75
2021/05/12 02:12:39;;;;;;;26.93;17.40;;;11.40;91.10;;;;;;5054923;28;20480;-75
2021/05/12 02:15:06;;;;;;;29.27;18.07;;;11.40;91.20;;;;;;5072591;28;20066;-75
2021/05/12 02:17:32;;;;;;;28.73;18.03;;;11.40;91.20;;;;;;5073500;28;20033;-75
2021/05/12 02:19:57;;;;;;;30.60;18.80;;;11.40;91.10;;;;;;5055602;28;20080;-75
2021/05/12 02:22:23;;;;;;;27.53;17.33;;;11.40;91.20;;;;;;5071521;28;20035;-75
2021/05/12 02:24:48;;;;;;;30.60;18.33;;;11.40;91.10;;;;;;5073530;28;20052;-75
2021/05/12 02:27:14;;;;;;;24.37;16.03;;;11.30;91.10;;;;;;5073505;28;20025;-77
2021/05/12 02:29:40;;;;;;;25.23;17.47;;;11.40;91.10;;;;;;5072616;28;20046;-75
2021/05/12 02:32:05;;;;;;;24.27;16.63;;;11.50;91.10;;;;;;5072172;28;20073;-75
2021/05/12 02:34:31;;;;;;;26.50;17.43;;;11.40;91.00;;;;;;5038807;28;20119;-75
2021/05/12 02:36:56;;;;;;;25.87;16.87;;;11.40;91.00;;;;;;5038977;28;20514;-75
2021/05/12 02:39:22;;;;;;;29.27;18.67;;;11.40;91.00;;;;;;5055310;28;20036;-75
2021/05/12 02:41:48;;;;;;;23.87;16.87;;;11.50;91.00;;;;;;5038671;28;20021;-75
2021/05/12 02:44:14;;;;;;;27.27;17.40;;;11.50;91.00;;;;;;5072050;28;20441;-75
2021/05/12 02:46:40;;;;;;;24.70;15.83;;;11.50;91.00;;;;;;5071953;28;20060;-75
2021/05/12 02:49:05;;;;;;;24.33;17.43;;;11.50;91.00;;;;;;5055364;28;20016;-76
2021/05/12 02:51:31;;;;;;;30.90;18.67;;;11.40;91.00;;;;;;5055376;28;20033;-75
2021/05/12 02:53:57;;;;;;;30.60;19.37;;;11.50;91.00;;;;;;5073129;28;20036;-75
2021/05/12 02:56:22;;;;;;;31.17;18.73;;;11.50;91.00;;;;;;5055198;28;20059;-75
2021/05/12 02:58:48;;;;;;;27.73;19.03;;;11.50;91.00;;;;;;5071871;28;20024;-75
2021/05/12 03:01:13;;;;;;;30.90;20.27;;;11.40;91.00;;;;;;5072998;28;20024;-75
2021/05/12 03:03:39;;;;;;;27.87;19.17;;;11.50;91.10;;;;;;5055065;28;20460;-75
2021/05/12 03:06:05;;;;;;;29.63;19.83;;;11.60;91.10;;;;;;5071986;28;20029;-75
2021/05/12 03:08:30;;;;;;;31.03;20.23;;;11.50;91.10;;;;;;5071766;28;20029;-75
2021/05/12 03:10:56;;;;;;;31.77;20.30;;;11.50;91.10;;;;;;5071771;28;20028;-75
2021/05/12 03:13:22;;;;;;;33.70;21.37;;;11.50;91.00;;;;;;5071683;28;20070;-75
2021/05/12 03:15:47;;;;;;;33.07;20.97;;;11.40;91.00;;;;;;5071793;28;20055;-75
2021/05/12 03:18:13;;;;;;;31.83;21.17;;;11.40;91.00;;;;;;5055117;28;20036;-75
2021/05/12 03:20:39;;;;;;;32.43;21.03;;;11.40;91.00;;;;;;5055033;28;20025;-75
2021/05/12 03:23:05;;;;;;;30.93;19.93;;;11.40;91.00;;;;;;5072997;28;20044;-75
2021/05/12 03:25:31;;;;;;;30.00;20.60;;;11.40;91.00;;;;;;5072955;28;20025;-76
2021/05/12 03:27:57;;;;;;;28.10;20.40;;;11.30;91.00;;;;;;5071752;28;20025;-75
2021/05/12 03:30:41;;;;;;;32.00;21.60;;;11.20;91.00;;;;;;5071774;28;20029;-75
2021/05/12 03:33:08;;;;;;;32.63;21.65;;;11.30;91.10;;;;;;5072896;28;20021;-75
2021/05/12 03:35:36;;;;;;;34.07;22.03;;;11.30;91.10;;;;;;5076199;28;20056;-75
2021/05/12 03:38:03;;;;;;;34.13;22.00;;;11.30;91.10;;;;;;5076630;28;20021;-75
2021/05/12 03:40:29;;;;;;;35.47;22.63;;;11.30;91.10;;;;;;5058710;28;20024;-75
2021/05/12 03:42:57;;;;;;;35.87;22.27;;;11.30;91.10;;;;;;5076389;28;20059;-75
2021/05/12 03:45:23;;;;;;;31.43;21.83;;;11.20;91.10;;;;;;5075150;28;20039;-75
2021/05/12 03:47:50;;;;;;;30.37;21.30;;;11.20;91.50;;;;;;5075154;28;20024;-75
2021/05/12 03:50:17;;;;;;;35.47;22.40;;;11.20;91.20;;;;;;5076265;28;20032;-75
2021/05/12 03:52:44;;;;;;;29.60;20.47;;;11.10;91.20;;;;;;5076279;28;20032;-75
2021/05/12 03:55:12;;;;;;;38.57;25.20;;;11.10;91.30;;;;;;5076236;28;20472;-75
2021/05/12 03:57:38;;;;;;;32.30;22.33;;;11.10;91.60;;;;;;5074964;28;20025;-75
2021/05/12 04:00:05;;;;;;;34.00;24.47;;;11.10;91.30;;;;;;5076275;28;20039;-76
2021/05/12 04:02:31;;;;;;;32.70;22.17;;;11.00;91.40;;;;;;5072279;28;20033;-75
2021/05/12 04:04:56;;;;;;;36.90;24.30;;;11.00;91.40;;;;;;5057539;28;20032;-75
2021/05/12 04:07:22;;;;;;;33.97;21.93;;;10.90;91.50;;;;;;5057754;28;20521;-75
2021/05/12 04:09:48;;;;;;;31.57;21.97;;;11.00;91.60;;;;;;5075953;28;20033;-75
2021/05/12 04:12:14;;;;;;;31.50;22.27;;;11.10;91.60;;;;;;5074831;28;20021;-75
2021/05/12 04:14:40;;;;;;;28.83;21.17;;;11.10;91.60;;;;;;5074600;28;20033;-75
2021/05/12 04:17:05;;;;;;;31.37;19.73;;;11.00;91.60;;;;;;5074052;28;20037;-75
2021/05/12 04:19:31;;;;;;;29.07;18.97;;;11.00;91.60;;;;;;5074632;28;20120;-75
2021/05/12 04:21:57;;;;;;;27.50;19.63;;;11.00;91.60;;;;;;5074693;28;20029;-75
2021/05/12 04:24:24;;;;;;;28.90;19.13;;;11.00;91.60;;;;;;5058109;28;20020;-80
2021/05/12 04:26:49;;;;;;;27.63;18.93;;;11.00;91.50;;;;;;5074523;28;20094;-80
2021/05/12 04:29:16;;;;;;;26.83;18.23;;;11.10;91.50;;;;;;5074360;28;20384;-80
2021/05/12 04:31:41;;;;;;;27.93;18.57;;;11.10;91.50;;;;;;5075823;28;20535;-81
2021/05/12 04:34:07;;;;;;;30.10;19.03;;;11.10;91.50;;;;;;5075717;28;20163;-80
2021/05/12 04:36:32;;;;;;;25.67;15.97;;;11.10;91.40;;;;;;5075593;28;20033;-83
2021/05/12 04:38:58;;;;;;;29.30;18.47;;;11.10;91.40;;;;;;5074146;28;20115;-81
2021/05/12 04:41:24;;;;;;;23.70;17.00;;;11.10;91.40;;;;;;5057489;28;20033;-83
2021/05/12 04:43:49;;;;;;;29.17;18.70;;;11.10;91.40;;;;;;5075500;28;20484;-81
2021/05/12 04:46:15;;;;;;;30.20;17.37;;;11.00;91.30;;;;;;5073504;28;20021;-81
2021/05/12 04:48:41;;;;;;;28.27;17.43;;;11.00;91.30;;;;;;5074254;28;20476;-81
2021/05/12 04:51:06;;;;;;;24.47;16.93;;;11.10;91.30;;;;;;5074116;28;20039;-82
2021/05/12 04:53:33;;;;;;;27.90;18.30;;;11.00;91.30;;;;;;5074242;28;20056;-81
2021/05/12 04:55:58;;;;;;;27.90;17.97;;;11.10;91.40;;;;;;5073846;28;20047;-81
2021/05/12 04:58:24;;;;;;;25.43;16.93;;;11.10;91.40;;;;;;5075186;28;20476;-81
2021/05/12 05:00:50;;;;;;;28.80;18.50;;;11.10;91.40;;;;;;5075233;28;20492;-81
2021/05/12 05:03:16;;;;;;;26.60;17.87;;;11.20;91.40;;;;;;5053681;28;20025;-81
2021/05/12 05:05:42;;;;;;;32.90;19.10;;;11.10;91.40;;;;;;5061965;28;20025;-81
2021/05/12 05:08:07;;;;;;;32.00;17.57;;;11.10;91.40;;;;;;5062895;28;20025;-81
2021/05/12 05:10:33;;;;;;;27.60;16.80;;;11.20;91.50;;;;;;5051868;28;20035;-82
2021/05/12 05:12:58;;;;;;;27.00;16.53;;;11.20;91.50;;;;;;5060425;28;20142;-81
2021/05/12 05:15:25;;;;;;;24.80;16.33;;;11.20;91.40;;;;;;5061981;28;20431;-82
2021/05/12 05:17:51;;;;;;;26.33;17.17;;;11.30;91.70;;;;;;5056013;28;20059;-81
2021/05/12 05:20:18;;;;;;;25.77;16.13;;;11.30;91.40;;;;;;5059863;28;20840;-82
2021/05/12 05:22:44;;;;;;;28.80;18.20;;;11.40;91.30;;;;;;5046822;28;20036;-81
2021/05/12 05:25:11;;;;;;;31.13;19.30;;;11.40;91.30;;;;;;5073645;28;20033;-82
2021/05/12 05:27:36;;;;;;;29.90;18.93;;;11.50;91.30;;;;;;5070579;28;20027;-82
2021/05/12 05:30:04;;;;;;;27.33;19.17;;;11.40;91.40;;;;;;5065521;28;20484;-82
2021/05/12 05:32:29;;;;;;;28.10;19.03;;;11.40;91.30;;;;;;5052907;28;20029;-82
2021/05/12 05:34:55;;;;;;;26.03;18.37;;;11.40;91.40;;;;;;5055556;28;20499;-81
2021/05/12 05:37:23;;;;;;;29.70;20.03;;;11.40;91.50;;;;;;5051282;28;20524;-85
2021/05/12 05:39:55;;;;;;;27.93;18.97;;;11.40;91.50;;;;;;5053885;28;20043;-82
2021/05/12 05:42:21;;;;;;;32.90;19.77;;;11.40;91.60;;;;;;5058199;28;20136;-82
2021/05/12 05:44:48;;;;;;;34.73;21.87;;;11.50;91.70;;;;;;5058520;28;20469;-82
2021/05/12 05:47:17;;;;;;;37.77;22.00;;;11.50;91.80;;;;;;5063025;28;20078;-84
2021/05/12 05:49:46;;;;;;;31.57;21.97;;;11.50;91.80;;;;;;5055105;28;20083;-85
2021/05/12 05:52:12;;;;;;;33.27;23.20;;;11.50;91.90;;;;;;5065731;28;20050;-81
2021/05/12 05:54:38;;;;;;;34.50;22.17;;;11.50;92.10;;;;;;5068427;28;20393;-84
2021/05/12 05:57:14;;;;;;;36.00;24.07;;;11.50;92.10;;;;;;5072115;28;20438;-78
2021/05/12 05:59:40;;;;;;;34.47;22.30;;;11.50;92.20;;;;;;5073686;28;20107;-81
2021/05/12 06:02:07;;;;;;;34.17;22.13;;;11.60;92.10;;;;;;5072666;28;20025;-82
2021/05/12 06:04:33;;;;;;;33.00;22.83;;;11.60;92.10;;;;;;5072626;28;20017;-80
2021/05/12 06:06:58;;;;;;;29.57;20.07;;;11.70;92.10;;;;;;5073825;28;20029;-79
2021/05/12 06:09:24;;;;;;;34.40;23.93;;;11.70;92.00;;;;;;5046585;28;20385;-85
2021/05/12 06:11:51;;;;;;;32.30;21.27;;;11.70;92.10;;;;;;5052628;28;20028;-82
2021/05/12 06:14:18;;;;;;;34.57;21.73;;;11.90;92.10;;;;;;5036061;28;20037;-79
2021/05/12 06:16:44;;;;;;;33.20;22.93;;;11.80;92.00;;;;;;5035905;28;20029;-79
2021/05/12 06:19:10;;;;;;;36.33;22.93;;;11.80;92.00;;;;;;5038768;28;20040;-82
2021/05/12 06:21:35;;;;;;;32.73;22.47;;;11.80;91.90;;;;;;5055559;28;20036;-81
2021/05/12 06:24:01;;;;;;;33.20;20.65;;;11.90;92.00;;;;;;5056062;28;20420;-83
2021/05/12 06:26:27;;;;;;;31.03;20.57;;;11.90;91.90;;;;;;5039197;28;20039;-83
2021/05/12 06:28:52;;;;;;;27.27;19.50;;;11.90;91.90;;;;;;5055390;28;20055;-80
2021/05/12 06:31:18;;;;;;;30.37;20.17;;;12.00;91.90;;;;;;5072739;28;20047;-85
2021/05/12 06:33:46;;;;;;;30.47;20.37;;;12.00;91.70;;;;;;5056028;28;20024;-80
2021/05/12 06:36:11;;;;;;;30.88;20.83;;;12.10;91.70;;;;;;5072492;28;20139;-81
2021/05/12 06:38:37;;;;;;;32.25;19.73;;;12.10;91.70;;;;;;5055608;28;20456;-81
2021/05/12 06:41:04;;;;;;;27.88;17.90;;;12.20;91.60;;;;;;5073809;28;20041;-81
2021/05/12 06:43:29;;;;;;;28.30;17.87;;;12.20;91.50;;;;;;5055691;28;20076;-82
2021/05/12 06:45:55;;;;;;;28.40;15.82;;;12.20;91.30;;;;;;5072158;28;20540;-84
2021/05/12 06:48:21;;;;;;;25.87;15.93;;;12.30;91.20;;;;;;5072278;28;20032;-83
2021/05/12 06:50:47;;;;;;;29.10;15.82;;;12.30;90.80;;;;;;5073686;28;20070;-82
2021/05/12 06:53:13;;;;;;;23.25;13.82;;;12.30;90.80;;;;;;5039380;28;20031;-81
2021/05/12 06:55:39;;;;;;;19.35;12.73;;;12.30;90.70;;;;;;5071957;28;20025;-79
2021/05/12 06:58:08;;;;;;;18.27;11.55;;;12.40;90.80;;;;;;5072169;28;20031;-82
2021/05/12 07:00:34;;;;;;;21.10;12.10;;;12.50;90.80;;;;;;5056053;28;20032;-79
2021/05/12 07:03:00;;;;;;;19.45;10.68;;;12.50;90.50;;;;;;5072644;28;20070;-80
2021/05/12 07:05:25;;;;;;;22.35;10.90;;;12.50;90.20;;;;;;5073034;28;20017;-79
2021/05/12 07:07:51;;;;;;;22.15;9.93;;;12.60;90.00;;;;;;5072398;28;20033;-81
2021/05/12 07:10:18;;;;;;;21.10;9.95;;;12.60;90.00;;;;;;5058853;28;20086;-83
2021/05/12 07:12:44;;;;;;;20.23;9.32;;;12.70;89.60;;;;;;5059928;28;20036;-81
2021/05/12 07:15:11;;;;;;;19.48;10.20;;;12.80;89.20;;;;;;5060075;28;20025;-81
2021/05/12 07:17:39;;;;;;;18.67;8.38;;;12.80;89.00;;;;;;5076572;28;20032;-79
2021/05/12 07:20:05;;;;;;;19.75;8.77;;;12.80;88.00;;;;;;5077639;28;20029;-79
2021/05/12 07:22:31;;;;;;;15.60;8.25;;;12.90;87.90;;;;;;5076453;28;20043;-82
2021/05/12 07:24:56;;;;;;;16.02;7.78;;;12.90;87.60;;;;;;5059463;28;20115;-83
2021/05/12 07:27:22;;;;;;;12.98;6.75;;;12.90;87.40;;;;;;5059197;28;20036;-82
2021/05/12 07:29:49;;;;;;;17.95;7.57;;;13.00;87.40;;;;;;5043139;28;20021;-82
2021/05/12 07:32:15;;;;;;;16.55;6.82;;;13.00;86.40;;;;;;5072644;28;20483;-78
2021/05/12 07:34:41;;;;;;;17.95;6.65;;;13.00;85.60;;;;;;5075483;28;20029;-80
2021/05/12 07:37:07;;;;;;;12.23;5.95;;;13.00;85.40;;;;;;5077018;28;20472;-77
2021/05/12 07:39:33;;;;;;;15.65;6.93;;;13.10;85.10;;;;;;5042472;28;20040;-82
2021/05/12 07:42:03;;;;;;;14.82;7.03;;;13.20;85.10;;;;;;5075398;28;20492;-83
2021/05/12 07:44:29;;;;;;;14.68;7.00;;;13.10;84.70;;;;;;5075507;28;20022;-81
2021/05/12 07:46:55;;;;;;;13.32;6.35;;;13.20;84.80;;;;;;5075654;28;20028;-81
2021/05/12 07:49:21;;;;;;;13.15;6.90;;;13.30;84.80;;;;;;5076055;28;20028;-78
2021/05/12 07:51:46;;;;;;;16.30;6.43;;;13.30;84.50;;;;;;5075146;28;20028;-80
2021/05/12 07:54:12;;;;;;;12.88;5.90;;;13.30;83.70;;;;;;5076320;28;20032;-80
2021/05/12 07:56:38;;;;;;;12.80;5.97;;;13.40;84.00;;;;;;5076509;28;20029;-78
2021/05/12 07:59:04;;;;;;;15.88;5.80;;;13.40;83.00;;;;;;5075808;28;20409;-82
2021/05/12 08:01:33;;;;;;;15.13;5.97;;;13.50;82.80;;;;;;5075976;28;20033;-75
2021/05/12 08:03:59;;;;;;;14.27;5.78;;;13.50;81.60;;;;;;5074717;28;20049;-75
2021/05/12 08:06:24;;;;;;;13.93;3.55;;;13.50;81.70;;;;;;5076073;28;20025;-76
2021/05/12 08:08:50;;;;;;;9.05;2.72;;;13.60;80.40;;;;;;5075003;28;20051;-83
2021/05/12 08:11:16;;;;;;;8.93;2.17;;;13.70;79.30;;;;;;5058194;28;20031;-82
2021/05/12 08:13:41;;;;;;;9.02;2.35;;;13.70;77.10;;;;;;5058117;28;20082;-78
2021/05/12 08:16:07;;;;;;;12.13;2.85;;;13.70;75.20;;;;;;5059487;28;20021;-83
2021/05/12 08:18:33;;;;;;;11.32;2.95;;;13.70;75.80;;;;;;5074447;28;20040;-79
2021/05/12 08:21:00;;;;;;;12.20;3.55;;;13.80;76.40;;;;;;5074577;28;20039;-81
2021/05/12 08:23:26;;;;;;;10.90;3.00;;;13.80;76.30;;;;;;5075751;28;20016;-80
2021/05/12 08:25:52;;;;;;;8.73;2.53;;;13.90;75.50;;;;;;5058358;28;20020;-80
2021/05/12 08:28:18;;;;;;;14.85;2.85;;;13.90;75.00;;;;;;5075795;28;20074;-81
2021/05/12 08:30:46;;;;;;;10.80;3.05;;;13.90;74.40;;;;;;5057522;28;20421;-79
2021/05/12 08:33:12;;;;;;;9.88;3.00;;;14.00;75.10;;;;;;5074843;28;20074;-79
2021/05/12 08:35:43;;;;;;;13.65;2.72;;;14.00;75.20;;;;;;5074435;28;20116;-81
2021/05/12 08:38:11;;;;;;;11.82;3.42;;;14.10;75.60;;;;;;5074609;28;20017;-80
2021/05/12 08:40:38;;;;;;;8.75;2.92;;;14.10;75.60;;;;;;5075704;28;20017;-79
2021/05/12 08:43:04;;;;;;;8.95;2.50;;;14.20;74.50;;;;;;5074431;28;20044;-83
2021/05/12 08:45:30;;;;;;;10.18;2.92;;;14.30;73.80;;;;;;5075586;28;20028;-79
2021/05/12 08:47:57;;;;;;;7.78;2.15;;;14.30;72.70;;;;;;5074448;28;20031;-80
2021/05/12 08:50:27;;;;;;;8.30;2.47;;;14.40;73.50;;;;;;5073902;28;20020;-80
2021/05/12 08:52:53;;;;;;;7.78;2.00;;;14.40;73.60;;;;;;5073565;28;20058;-86
2021/05/12 08:55:20;;;;;;;13.05;3.20;;;14.50;73.40;;;;;;5057125;28;20028;-84
2021/05/12 08:57:46;;;;;;;10.73;2.88;;;14.60;72.50;;;;;;5074693;28;20051;-82
2021/05/12 09:00:12;;;;;;;11.75;3.05;;;14.60;72.70;;;;;;5073134;28;20492;-79
2021/05/12 09:02:39;;;;;;;9.52;2.80;;;14.70;70.80;;;;;;5074885;28;20025;-80
2021/05/12 09:05:08;;;;;;;9.38;3.10;;;14.70;71.10;;;;;;5072882;28;20044;-80
2021/05/12 09:07:34;;;;;;;10.63;2.78;;;14.80;71.90;;;;;;5059832;28;20025;-83
2021/05/12 09:10:01;;;;;;;10.40;2.88;;;14.90;71.50;;;;;;5035637;28;20036;-84
2021/05/12 09:12:56;;;;;;;7.93;2.15;;;14.90;71.10;;;;;;5070821;28;20527;-83
2021/05/12 09:15:26;;;;;;;15.20;2.88;;;15.00;70.80;;;;;;5055971;28;20079;-80
2021/05/12 09:17:53;;;;;;;10.13;2.95;;;15.10;71.10;;;;;;5071255;28;20049;-80
2021/05/12 09:20:18;;;;;;;8.85;3.13;;;15.10;71.30;;;;;;5053668;28;20029;-79
2021/05/12 09:22:48;;;;;;;8.75;2.85;;;15.20;71.60;;;;;;5054392;28;20033;-81
2021/05/12 09:25:17;;;;;;;10.88;3.08;;;15.30;71.70;;;;;;5065906;28;20050;-79
2021/05/12 09:27:51;;;;;;;14.02;2.95;;;15.40;71.90;;;;;;5054694;28;20016;-79
2021/05/12 09:30:21;;;;;;;9.10;1.88;;;15.50;71.00;;;;;;5036974;28;20512;-79
2021/05/12 09:32:46;;;;;;;8.70;1.95;;;15.60;69.20;;;;;;5052962;28;20033;-80
2021/05/12 09:35:16;;;;;;;9.48;1.60;;;15.60;69.40;;;;;;5054678;28;20417;-82
2021/05/12 09:37:43;;;;;;;9.95;1.65;;;15.70;69.10;;;;;;5053017;28;20071;-80
2021/05/12 09:40:10;;;;;;;7.78;2.00;;;15.80;69.20;;;;;;5052811;28;20123;-78
2021/05/12 09:42:37;;;;;;;8.57;2.15;;;15.80;68.70;;;;;;5052981;28;20130;-81
2021/05/12 09:45:20;;;;;;;7.85;1.15;;;15.80;68.00;;;;;;5036586;28;20526;-76
2021/05/12 09:48:06;;;;;;;9.25;1.58;;;15.90;67.50;;;;;;5052996;28;20096;-76
2021/05/12 09:50:39;;;;;;;12.85;2.13;;;15.80;67.00;;;;;;5035799;28;20071;-76
2021/05/12 09:53:11;;;;;;;12.80;1.92;;;16.00;67.20;;;;;;5052438;28;20028;-77
2021/05/12 09:55:38;;;;;;;7.80;1.08;;;16.10;67.70;;;;;;5021060;28;20402;-76
2021/05/12 09:58:09;;;;;;;8.02;1.13;;;16.20;66.50;;;;;;5040917;28;20029;-77
2021/05/12 10:00:43;;;;;;;8.48;1.35;;;16.30;65.70;;;;;;5071555;28;20042;-76
2021/05/12 10:03:11;;;;;;;7.25;0.98;;;16.30;65.60;;;;;;5052554;28;20028;-76
2021/05/12 10:05:56;;;;;;;5.00;0.77;;;16.40;65.10;;;;;;5059034;28;20136;-74
2021/05/12 10:08:30;;;;;;;6.68;0.95;;;16.40;64.50;;;;;;5057756;28;20111;-74
2021/05/12 10:10:56;;;;;;;8.63;1.13;;;16.60;63.80;;;;;;5057583;28;20035;-76
2021/05/12 10:13:23;;;;;;;6.72;1.08;;;16.80;64.30;;;;;;5052126;28;20070;-77
2021/05/12 10:15:49;;;;;;;11.70;1.50;;;17.00;63.50;;;;;;5051706;28;20029;-76
2021/05/12 10:18:15;;;;;;;8.05;1.00;;;17.20;63.10;;;;;;5035798;28;20501;-77
2021/05/12 10:20:41;;;;;;;6.82;1.70;;;17.40;62.20;;;;;;5035507;28;20112;-76
2021/05/12 10:23:07;;;;;;;8.15;1.30;;;17.60;62.10;;;;;;5035557;28;20025;-76
2021/05/12 10:25:33;;;;;;;6.90;1.08;;;17.80;60.70;;;;;;5052127;28;20024;-77
2021/05/12 10:28:00;;;;;;;6.82;1.45;;;17.90;59.90;;;;;;5035384;28;20035;-75
2021/05/12 10:30:27;;;;;;;6.10;1.17;;;18.00;60.10;;;;;;5052202;28;20536;-75
2021/05/12 10:32:55;;;;;;;6.70;1.00;;;18.40;60.30;;;;;;5071979;28;20458;-77
2021/05/12 10:35:31;;;;;;;8.48;1.55;;;18.70;58.50;;;;;;5055635;28;20029;-76
2021/05/12 10:37:57;;;;;;;5.07;1.00;;;18.90;57.80;;;;;;5073320;28;20081;-75
2021/05/12 10:40:29;;;;;;;6.25;1.10;;;19.10;57.30;;;;;;5048702;28;20025;-75
2021/05/12 10:45:31;;;;;;;7.68;1.20;;;19.40;56.00;;;;;;5072407;28;20365;-78
2021/05/12 10:47:57;;;;;;;7.47;1.15;;;19.30;55.80;;;;;;5064317;28;20104;-77
2021/05/12 10:50:50;;;;;;;7.40;0.90;;;19.30;56.00;;;;;;5058913;28;20463;-79
2021/05/12 10:53:23;;;;;;;5.28;0.93;;;19.10;55.10;;;;;;5074430;28;20042;-78
2021/05/12 10:55:58;;;;;;;11.98;1.67;;;19.10;54.90;;;;;;5064084;28;20037;-78
2021/05/12 10:58:51;;;;;;;10.20;1.48;;;19.00;54.90;;;;;;5063053;28;20499;-77
2021/05/12 11:01:17;;;;;;;7.10;1.27;;;18.80;56.30;;;;;;5061988;28;20040;-75
2021/05/12 11:03:52;;;;;;;6.47;1.38;;;18.80;56.00;;;;;;5062840;28;20027;-77
2021/05/12 11:06:23;;;;;;;6.55;1.30;;;19.30;57.10;;;;;;5053399;28;20051;-78
2021/05/12 11:09:18;;;;;;;4.88;0.88;;;20.20;57.20;;;;;;5053464;28;20017;-82
2021/05/12 11:11:44;;;;;;;7.72;1.00;;;21.40;55.70;;;;;;5051561;28;20179;-77
2021/05/12 11:14:31;;;;;;;5.38;0.93;;;22.20;53.20;;;;;;5051763;28;20556;-78
2021/05/12 11:17:19;;;;;;;6.80;1.17;;;23.00;48.70;;;;;;5065111;28;20028;-81
2021/05/12 11:19:47;;;;;;;5.30;0.68;;;23.60;46.60;;;;;;5059977;28;20508;-77
2021/05/12 11:24:58;;;;;;;4.70;0.80;;;24.70;44.20;;;;;;5053012;28;20029;-77
2021/05/12 11:32:23;;;;;;;4.10;0.68;;;25.80;40.80;;;;;;5036271;28;20030;-77
2021/05/12 11:34:49;;;;;;;5.10;0.80;;;26.20;40.30;;;;;;5070688;28;20029;-77
2021/05/12 11:37:19;;;;;;;2.60;0.50;;;26.50;40.10;;;;;;5071577;28;20550;-76
2021/05/12 11:39:49;;;;;;;3.95;0.65;;;26.60;40.70;;;;;;5055844;28;20044;-74
2021/05/12 11:42:26;;;;;;;7.03;0.90;;;26.50;40.40;;;;;;5038819;28;20128;-76
2021/05/12 11:45:07;;;;;;;3.13;0.60;;;26.60;40.30;;;;;;5072982;28;20028;-77
2021/05/12 11:47:34;;;;;;;3.70;0.63;;;26.50;39.90;;;;;;5072802;28;20020;-75
2021/05/12 11:50:00;;;;;;;4.20;0.73;;;26.40;39.20;;;;;;5072946;28;20021;-75
2021/05/12 11:52:31;;;;;;;6.15;0.90;;;26.20;38.80;;;;;;5071385;28;20044;-76
2021/05/12 11:55:07;;;;;;;5.53;0.80;;;26.10;38.70;;;;;;5039710;28;20111;-79
2021/05/12 11:57:33;;;;;;;3.70;0.70;;;26.00;39.20;;;;;;5076018;28;20127;-74
2021/05/12 12:00:03;;;;;;;4.90;0.75;;;26.10;39.50;;;;;;5075161;28;20025;-74
2021/05/12 12:02:29;;;;;;;6.88;1.10;;;26.20;39.20;;;;;;5059149;28;20373;-76
2021/05/12 12:05:02;;;;;;;5.40;1.10;;;26.10;38.90;;;;;;5075423;28;20063;-76
2021/05/12 12:07:29;;;;;;;5.15;1.10;;;26.20;38.90;;;;;;5076465;28;20526;-78
2021/05/12 12:10:06;;;;;;;5.13;0.77;;;26.20;39.10;;;;;;5058611;28;20021;-74
2021/05/12 12:12:34;;;;;;;4.93;0.98;;;26.30;38.90;;;;;;5058272;28;20113;-77
2021/05/12 12:15:08;;;;;;;3.72;0.77;;;26.40;39.00;;;;;;5076230;28;20066;-74
2021/05/12 12:17:34;;;;;;;5.13;0.90;;;26.50;38.90;;;;;;5076264;28;20040;-75
2021/05/12 12:20:05;;;;;;;5.10;0.95;;;26.70;39.10;;;;;;5076226;28;20380;-78
2021/05/12 12:22:30;;;;;;;4.65;0.88;;;26.80;38.90;;;;;;5074572;28;20021;-76
2021/05/12 12:25:09;;;;;;;6.38;1.00;;;27.00;38.70;;;;;;5074702;28;20082;-74
2021/05/12 12:27:40;;;;;;;5.53;1.00;;;27.10;38.30;;;;;;5074761;28;20488;-75
2021/05/12 12:30:06;;;;;;;3.30;0.77;;;27.30;38.20;;;;;;5057889;28;20476;-75
2021/05/12 12:32:32;;;;;;;6.43;0.98;;;27.20;38.00;;;;;;5057894;28;20092;-76
2021/05/12 12:34:59;;;;;;;5.60;0.90;;;26.90;37.60;;;;;;5075679;28;20094;-75
2021/05/12 12:37:31;;;;;;;5.20;0.80;;;26.70;37.90;;;;;;5074740;28;20032;-75
2021/05/12 12:40:06;;;;;;;5.75;1.00;;;26.60;38.00;;;;;;5074687;28;20388;-77
2021/05/12 12:42:34;;;;;;;7.07;1.38;;;26.60;37.90;;;;;;5057820;28;20040;-79
2021/05/12 12:45:17;;;;;;;4.38;0.70;;;26.60;37.80;;;;;;5074412;28;20115;-75
2021/05/12 12:47:54;;;;;;;5.67;1.13;;;26.80;38.60;;;;;;5072251;28;20024;-74
2021/05/12 12:50:21;;;;;;;4.43;0.70;;;27.00;37.80;;;;;;5075636;28;20024;-79